createdAt,value
2023-01-11T09:59:48.683Z,101286.69
2023-01-11T10:00:12.817Z,101299.97
2023-01-11T10:00:32.716Z,101292.00
2023-01-11T10:00:55.401Z,101290.31
2023-01-11T10:01:15.303Z,101293.72
2023-01-11T10:01:37.893Z,101290.13
2023-01-11T10:02:01.377Z,101297.16
2023-01-11T10:02:23.510Z,101284.81
2023-01-11T10:02:46.721Z,101290.97
2023-01-11T10:03:25.906Z,101289.19
2023-01-11T10:04:25.956Z,101288.19
2023-01-11T10:04:51.398Z,101281.06
2023-01-11T10:05:31.056Z,101280.19
2023-01-11T10:05:56.525Z,101288.94
2023-01-11T10:06:18.470Z,101285.25
2023-01-11T10:06:37.261Z,101283.38
2023-01-11T10:07:12.358Z,101279.00
2023-01-11T10:07:44.129Z,101284.22
2023-01-11T10:18:21.216Z,101275.44
2023-01-11T10:18:25.379Z,101277.06
2023-01-11T10:18:27.913Z,101266.09
2023-01-11T10:18:28.362Z,101272.53
2023-01-11T10:18:29.957Z,101272.59
2023-01-11T10:18:32.763Z,101271.50
2023-01-11T10:19:18.680Z,101261.56
2023-01-11T10:19:38.555Z,101268.56
2023-01-11T10:20:01.370Z,101263.19
2023-01-11T10:20:24.523Z,101266.69
2023-01-11T10:20:43.833Z,101261.38
2023-01-11T10:21:04.986Z,101254.16
2023-01-11T10:21:23.504Z,101261.22
2023-01-11T10:21:44.175Z,101257.59
2023-01-11T10:22:02.230Z,101262.00
2023-01-11T10:22:18.076Z,101262.84
2023-01-11T10:22:36.937Z,101262.84
2023-01-11T10:22:52.437Z,101264.66
2023-01-11T10:23:11.645Z,101255.72
2023-01-11T10:23:29.783Z,101258.38
2023-01-11T10:23:50.809Z,101256.56
2023-01-11T10:24:12.343Z,101257.44
2023-01-11T10:24:30.028Z,101259.16
2023-01-11T10:24:48.472Z,101253.84
2023-01-11T10:25:11.398Z,101251.94
2023-01-11T10:25:31.271Z,101252.81
2023-01-11T10:25:51.583Z,101257.19
2023-01-11T10:26:13.114Z,101247.47
2023-01-11T10:26:29.111Z,101256.34
2023-01-11T10:26:42.106Z,101250.06
2023-01-11T10:26:59.133Z,101252.72
2023-01-11T10:27:20.430Z,101250.06
2023-01-11T10:27:37.847Z,101252.72
2023-01-11T10:27:56.936Z,101254.47
2023-01-11T10:28:23.052Z,101248.88
2023-01-11T10:28:43.299Z,101250.50
2023-01-11T10:29:22.166Z,101247.00
2023-01-11T10:29:57.550Z,101246.03
2023-01-11T10:30:33.552Z,101255.75
2023-01-11T10:31:07.474Z,101242.53
2023-01-11T10:31:43.925Z,101245.97
2023-01-11T10:32:15.271Z,101249.47
2023-01-11T10:32:45.824Z,101256.47
2023-01-11T10:33:14.519Z,101252.97
2023-01-11T10:33:49.995Z,101247.66
2023-01-11T10:34:22.603Z,101248.44
2023-01-11T10:34:56.242Z,101247.50
2023-01-11T10:35:29.892Z,101247.50
2023-01-11T10:35:58.167Z,101248.28
2023-01-11T10:36:30.755Z,101244.66
2023-01-11T10:37:10.984Z,101249.03
2023-01-11T10:37:44.239Z,101247.13
2023-01-11T10:38:15.431Z,101249.78
2023-01-11T10:38:57.709Z,101248.84
2023-01-11T10:39:32.040Z,101241.66
2023-01-11T10:40:11.636Z,101238.03
2023-01-11T10:40:35.280Z,101240.69
2023-01-11T10:41:06.762Z,101234.53
2023-01-11T10:41:26.513Z,101235.28
2023-01-11T10:41:52.365Z,101239.41
2023-01-11T10:42:11.899Z,101235.88
2023-01-11T10:42:28.759Z,101227.72
2023-01-11T10:42:48.799Z,101234.88
2023-01-11T10:43:12.888Z,101233.06
2023-01-11T10:43:27.016Z,101233.97
2023-01-11T10:43:45.049Z,101233.97
2023-01-11T10:44:05.218Z,101231.31
2023-01-11T10:44:28.887Z,101233.13
2023-01-11T10:44:52.647Z,101237.53
2023-01-11T10:45:13.369Z,101237.53
2023-01-11T10:45:37.449Z,101231.16
2023-01-11T10:45:53.379Z,101232.00
2023-01-11T10:46:11.416Z,101231.16
2023-01-11T10:46:26.746Z,101230.31
2023-01-11T10:46:44.674Z,101228.59
2023-01-11T10:47:00.290Z,101220.59
2023-01-11T10:47:18.354Z,101228.50
2023-01-11T10:47:37.253Z,101222.22
2023-01-11T10:47:57.207Z,101228.50
2023-01-11T10:48:18.704Z,101225.00
2023-01-11T10:48:37.217Z,101231.16
2023-01-11T10:49:01.163Z,101226.63
2023-01-11T10:49:33.664Z,101232.78
2023-01-11T10:49:56.105Z,101226.50
2023-01-11T10:50:19.388Z,101230.97
2023-01-11T10:50:40.695Z,101223.84
2023-01-11T10:51:01.646Z,101229.28
2023-01-11T10:51:24.873Z,101219.47
2023-01-11T10:51:44.142Z,101225.66
2023-01-11T10:52:05.209Z,101227.53
2023-01-11T10:52:28.175Z,101231.75
2023-01-11T10:52:48.153Z,101231.66
2023-01-11T10:53:07.771Z,101232.50
2023-01-11T10:53:25.792Z,101223.69
2023-01-11T10:53:44.297Z,101226.16
2023-01-11T10:54:27.335Z,101226.25
2023-01-11T10:54:46.794Z,101221.88
2023-01-11T10:55:03.125Z,101220.06
2023-01-11T10:55:23.227Z,101221.03
2023-01-11T10:55:47.236Z,101221.88
2023-01-11T10:56:13.874Z,101215.69
2023-01-11T10:56:42.546Z,101216.56
2023-01-11T10:57:08.975Z,101218.34
2023-01-11T10:57:37.830Z,101221.03
2023-01-11T10:58:03.583Z,101221.03
2023-01-11T10:58:31.235Z,101225.38
2023-01-11T10:59:03.916Z,101219.97
2023-01-11T10:59:34.972Z,101218.16
2023-01-11T11:00:08.994Z,101218.16
2023-01-11T11:00:35.560Z,101217.91
2023-01-11T11:00:58.679Z,101212.56
2023-01-11T11:01:24.501Z,101215.34
2023-01-11T11:01:55.584Z,101208.28
2023-01-11T11:02:22.414Z,101218.78
2023-01-11T11:02:56.075Z,101213.34
2023-01-11T11:03:24.405Z,101216.50
2023-01-11T11:04:02.525Z,101206.06
2023-01-11T11:04:28.919Z,101206.13
2023-01-11T11:05:05.143Z,101207.09
2023-01-11T11:05:29.274Z,101209.63
2023-01-11T11:05:51.072Z,101206.91
2023-01-11T11:06:11.088Z,101206.06
2023-01-11T11:06:33.916Z,101206.06
2023-01-11T11:06:55.593Z,101206.06
2023-01-11T11:07:15.250Z,101204.31
2023-01-11T11:07:35.739Z,101207.94
2023-01-11T11:07:55.698Z,101214.13
2023-01-11T11:08:14.744Z,101199.97
2023-01-11T11:08:33.586Z,101202.63
2023-01-11T11:08:53.340Z,101208.91
2023-01-11T11:09:17.831Z,101207.94
2023-01-11T11:09:38.596Z,101202.63
2023-01-11T11:09:59.159Z,101198.16
2023-01-11T11:10:18.853Z,101199.97
2023-01-11T11:10:38.357Z,101207.75
2023-01-11T11:10:57.616Z,101205.84
2023-01-11T11:11:14.897Z,101208.44
2023-01-11T11:11:34.960Z,101202.25
2023-01-11T11:11:53.269Z,101203.19
2023-01-11T11:12:11.520Z,101197.88
2023-01-11T11:12:29.289Z,101191.78
2023-01-11T11:12:53.315Z,101195.31
2023-01-11T11:13:21.377Z,101196.16
2023-01-11T11:13:45.294Z,101197.09
2023-01-11T11:14:04.417Z,101196.16
2023-01-11T11:14:28.812Z,101193.50
2023-01-11T11:14:47.208Z,101206.72
2023-01-11T11:15:09.890Z,101199.59
2023-01-11T11:15:28.816Z,101188.09
2023-01-11T11:15:48.465Z,101188.97
2023-01-11T11:16:06.821Z,101191.63
2023-01-11T11:16:34.298Z,101191.53
2023-01-11T11:17:00.146Z,101189.72
2023-01-11T11:17:20.457Z,101188.88
2023-01-11T11:17:35.929Z,101193.31
2023-01-11T11:17:51.268Z,101183.56
2023-01-11T11:18:04.800Z,101193.31
2023-01-11T11:18:18.374Z,101185.34
2023-01-11T11:18:31.065Z,101187.16
2023-01-11T11:18:43.952Z,101178.31
2023-01-11T11:18:58.714Z,101190.66
2023-01-11T11:19:18.706Z,101182.66
2023-01-11T11:19:33.269Z,101178.97
2023-01-11T11:19:46.341Z,101172.78
2023-01-11T11:19:59.290Z,101178.13
2023-01-11T11:20:15.524Z,101179.84
2023-01-11T11:20:30.859Z,101179.06
2023-01-11T11:20:44.226Z,101173.75
2023-01-11T11:21:02.924Z,101180.88
2023-01-11T11:21:23.305Z,101181.75
2023-01-11T11:21:38.987Z,101182.66
2023-01-11T11:21:52.498Z,101176.59
2023-01-11T11:22:05.148Z,101173.00
2023-01-11T11:22:19.989Z,101181.91
2023-01-11T11:22:33.089Z,101186.28
2023-01-11T11:22:45.744Z,101173.00
2023-01-11T11:22:59.139Z,101179.06
2023-01-11T11:23:18.416Z,101178.22
2023-01-11T11:23:31.646Z,101177.34
2023-01-11T11:23:47.462Z,101176.41
2023-01-11T11:24:03.860Z,101175.56
2023-01-11T11:24:22.438Z,101169.38
2023-01-11T11:24:41.811Z,101172.78
2023-01-11T11:25:00.958Z,101179.72
2023-01-11T11:25:18.071Z,101174.53
2023-01-11T11:25:33.504Z,101180.41
2023-01-11T11:25:51.344Z,101168.91
2023-01-11T11:26:06.846Z,101172.50
2023-01-11T11:26:21.175Z,101169.97
2023-01-11T11:26:38.365Z,101167.31
2023-01-11T11:26:57.358Z,101171.75
2023-01-11T11:27:20.737Z,101171.88
2023-01-11T11:27:40.023Z,101168.25
2023-01-11T11:27:56.846Z,101158.56
2023-01-11T11:28:27.023Z,101172.63
2023-01-11T11:28:59.945Z,101174.31
2023-01-11T11:29:21.234Z,101166.34
2023-01-11T11:29:41.594Z,101160.16
2023-01-11T11:29:57.366Z,101164.66
2023-01-11T11:30:13.229Z,101157.59
2023-01-11T11:30:29.405Z,101154.94
2023-01-11T11:30:43.992Z,101157.59
2023-01-11T11:30:59.847Z,101156.75
2023-01-11T11:31:15.163Z,101157.59
2023-01-11T11:31:29.201Z,101160.25
2023-01-11T11:31:44.245Z,101156.75
2023-01-11T11:32:00.258Z,101155.78
2023-01-11T11:32:25.568Z,101154.84
2023-01-11T11:32:43.107Z,101154.00
2023-01-11T11:33:00.705Z,101155.69
2023-01-11T11:33:20.706Z,101154.00
2023-01-11T11:33:35.757Z,101156.66
2023-01-11T11:33:48.528Z,101149.53
2023-01-11T11:34:06.992Z,101153.13
2023-01-11T11:34:22.361Z,101145.06
2023-01-11T11:34:36.046Z,101154.00
2023-01-11T11:34:50.257Z,101154.00
2023-01-11T11:35:03.151Z,101147.78
2023-01-11T11:35:30.499Z,101152.19
2023-01-11T11:35:46.432Z,101146.94
2023-01-11T11:36:02.172Z,101146.09
2023-01-11T11:36:17.535Z,101152.28
2023-01-11T11:36:41.473Z,101148.69
2023-01-11T11:36:54.565Z,101150.38
2023-01-11T11:37:21.807Z,101149.44
2023-01-11T11:37:36.115Z,101149.53
2023-01-11T11:37:48.920Z,101149.44
2023-01-11T11:38:01.745Z,101142.22
2023-01-11T11:38:22.527Z,101147.53
2023-01-11T11:38:38.520Z,101148.47
2023-01-11T11:39:05.450Z,101142.31
2023-01-11T11:39:20.862Z,101146.78
2023-01-11T11:39:34.570Z,101151.22
2023-01-11T11:39:49.066Z,101145.06
2023-01-11T11:40:02.410Z,101142.38
2023-01-11T11:40:29.645Z,101138.88
2023-01-11T11:40:43.274Z,101139.72
2023-01-11T11:41:06.479Z,101145.91
2023-01-11T11:41:19.088Z,101140.69
2023-01-11T11:41:47.182Z,101139.72
2023-01-11T11:42:07.845Z,101136.22
2023-01-11T11:42:21.550Z,101138.88
2023-01-11T11:42:34.195Z,101137.06
2023-01-11T11:42:46.947Z,101137.06
2023-01-11T11:43:20.802Z,101138.81
2023-01-11T11:43:34.608Z,101139.72
2023-01-11T11:43:47.833Z,101140.56
2023-01-11T11:44:15.463Z,101126.44
2023-01-11T11:44:29.862Z,101138.81
2023-01-11T11:44:42.553Z,101144.13
2023-01-11T11:45:16.447Z,101141.47
2023-01-11T11:45:30.056Z,101151.13
2023-01-11T11:45:51.464Z,101143.72
2023-01-11T11:46:07.106Z,101135.09
2023-01-11T11:46:27.702Z,101143.91
2023-01-11T11:46:40.498Z,101146.59
2023-01-11T11:47:04.411Z,101143.84
2023-01-11T11:47:17.688Z,101140.28
2023-01-11T11:47:30.385Z,101129.66
2023-01-11T11:47:45.015Z,101142.09
2023-01-11T11:48:02.707Z,101139.38
2023-01-11T11:48:15.354Z,101137.63
2023-01-11T11:48:31.219Z,101137.63
2023-01-11T11:48:44.510Z,101132.50
2023-01-11T11:49:13.230Z,101146.59
2023-01-11T11:49:26.748Z,101142.22
2023-01-11T11:49:40.015Z,101140.50
2023-01-11T11:50:42.428Z,101137.84
2023-01-11T11:51:00.205Z,101137.84
2023-01-11T11:51:17.002Z,101132.50
2023-01-11T11:51:29.716Z,101140.41
2023-01-11T11:51:44.372Z,101132.50
2023-01-11T11:52:26.513Z,101135.19
2023-01-11T11:54:20.456Z,101129.75
2023-01-11T11:54:36.429Z,101141.06
2023-01-11T11:54:51.672Z,101136.63
2023-01-11T11:55:08.108Z,101132.22
2023-01-11T11:55:27.088Z,101134.03
2023-01-11T11:55:40.745Z,101134.03
2023-01-11T11:55:53.964Z,101130.53
2023-01-11T11:56:14.149Z,101133.06
2023-01-11T11:56:28.998Z,101123.41
2023-01-11T11:56:41.844Z,101126.91
2023-01-11T11:56:57.085Z,101127.88
2023-01-11T11:57:15.923Z,101127.09
2023-01-11T11:57:32.457Z,101121.66
2023-01-11T11:57:45.135Z,101131.47
2023-01-11T11:58:00.427Z,101125.28
2023-01-11T11:58:19.683Z,101123.41
2023-01-11T11:58:32.578Z,101127.88
2023-01-11T11:58:46.343Z,101119.00
2023-01-11T11:59:05.432Z,101122.44
2023-01-11T11:59:20.310Z,101119.75
2023-01-11T11:59:33.919Z,101121.59
2023-01-11T11:59:48.866Z,101117.09
2023-01-11T12:00:04.303Z,101125.09
2023-01-11T12:00:25.683Z,101118.91
2023-01-11T12:00:46.502Z,101109.72
2023-01-11T12:01:00.346Z,101113.44
2023-01-11T12:01:27.414Z,101116.19
2023-01-11T12:01:46.760Z,101113.44
2023-01-11T12:02:04.700Z,101110.84
2023-01-11T12:02:28.270Z,101103.81
2023-01-11T12:02:49.735Z,101110.84
2023-01-11T12:03:06.217Z,101103.81
2023-01-11T12:03:21.848Z,101112.53
2023-01-11T12:03:36.076Z,101107.22
2023-01-11T12:03:49.598Z,101104.47
2023-01-11T12:04:11.743Z,101104.56
2023-01-11T12:04:33.329Z,101104.56
2023-01-11T12:04:49.791Z,101102.88
2023-01-11T12:05:09.244Z,101109.13
2023-01-11T12:05:22.278Z,101103.81
2023-01-11T12:05:34.953Z,101101.91
2023-01-11T12:05:53.724Z,101107.22
2023-01-11T12:06:08.852Z,101100.22
2023-01-11T12:06:25.195Z,101101.91
2023-01-11T12:06:38.237Z,101099.34
2023-01-11T12:07:06.595Z,101104.69
2023-01-11T12:07:21.939Z,101099.34
2023-01-11T12:07:49.892Z,101104.69
2023-01-11T12:08:07.756Z,101110.00
2023-01-11T12:08:21.707Z,101102.88
2023-01-11T12:08:35.496Z,101096.78
2023-01-11T12:08:48.121Z,101097.63
2023-01-11T12:09:03.636Z,101102.03
2023-01-11T12:09:27.749Z,101104.69
2023-01-11T12:09:44.290Z,101105.31
2023-01-11T12:10:00.448Z,101095.66
2023-01-11T12:10:16.875Z,101100.13
2023-01-11T12:10:32.009Z,101097.47
2023-01-11T12:10:49.769Z,101099.34
2023-01-11T12:11:06.774Z,101103.63
2023-01-11T12:11:30.014Z,101099.25
2023-01-11T12:11:47.896Z,101098.47
2023-01-11T12:12:02.080Z,101100.97
2023-01-11T12:12:18.345Z,101094.69
2023-01-11T12:12:32.468Z,101094.88
2023-01-11T12:12:56.235Z,101089.56
2023-01-11T12:13:27.727Z,101097.53
2023-01-11T12:13:42.485Z,101090.41
2023-01-11T12:14:01.177Z,101089.56
2023-01-11T12:14:19.676Z,101092.22
2023-01-11T12:14:35.149Z,101091.47
2023-01-11T12:15:18.499Z,101088.59
2023-01-11T12:15:34.628Z,101094.88
2023-01-11T12:15:56.726Z,101085.94
2023-01-11T12:16:21.093Z,101098.09
2023-01-11T12:16:38.456Z,101087.56
2023-01-11T12:16:52.086Z,101102.56
2023-01-11T12:17:22.894Z,101097.34
2023-01-11T12:17:35.720Z,101094.69
2023-01-11T12:17:48.808Z,101094.69
2023-01-11T12:18:25.957Z,101089.19
2023-01-11T12:18:41.584Z,101089.28
2023-01-11T12:18:54.233Z,101094.59
2023-01-11T12:19:29.516Z,101095.56
2023-01-11T12:19:45.239Z,101095.56
2023-01-11T12:19:57.932Z,101081.38
2023-01-11T12:20:27.815Z,101085.75
2023-01-11T12:20:44.705Z,101094.69
2023-01-11T12:20:57.313Z,101095.56
2023-01-11T12:21:18.262Z,101090.13
2023-01-11T12:21:30.852Z,101081.28
2023-01-11T12:21:44.805Z,101080.44
2023-01-11T12:22:17.863Z,101086.69
2023-01-11T12:22:30.587Z,101090.22
2023-01-11T12:22:44.819Z,101092.91
2023-01-11T12:23:14.855Z,101084.91
2023-01-11T12:23:27.488Z,101085.75
2023-01-11T12:23:41.071Z,101091.09
2023-01-11T12:24:10.387Z,101088.41
2023-01-11T12:24:23.971Z,101084.72
2023-01-11T12:24:36.571Z,101093.63
2023-01-11T12:25:05.559Z,101082.13
2023-01-11T12:25:21.782Z,101082.13
2023-01-11T12:25:39.777Z,101083.09
2023-01-11T12:26:21.197Z,101074.25
2023-01-11T12:26:41.707Z,101080.44
2023-01-11T12:27:03.862Z,101075.13
2023-01-11T12:27:30.137Z,101071.47
2023-01-11T12:27:50.927Z,101072.34
2023-01-11T12:28:11.651Z,101070.63
2023-01-11T12:28:37.901Z,101076.81
2023-01-11T12:29:23.092Z,101068.81
2023-01-11T12:29:56.108Z,101068.94
2023-01-11T12:30:25.744Z,101074.16
2023-01-11T12:30:48.114Z,101067.88
2023-01-11T12:31:12.602Z,101068.34
2023-01-11T12:31:36.801Z,101065.88
2023-01-11T12:32:04.022Z,101073.00
2023-01-11T12:32:40.562Z,101065.09
2023-01-11T12:33:08.667Z,101068.66
2023-01-11T12:33:37.979Z,101067.69
2023-01-11T12:33:57.331Z,101070.44
2023-01-11T12:34:22.698Z,101070.44
2023-01-11T12:34:52.565Z,101069.59
2023-01-11T12:35:25.215Z,101057.88
2023-01-11T12:35:47.780Z,101060.47
2023-01-11T12:36:06.807Z,101059.69
2023-01-11T12:36:29.380Z,101062.38
2023-01-11T12:36:50.255Z,101073.84
2023-01-11T12:37:18.923Z,101070.19
2023-01-11T12:37:45.619Z,101067.50
2023-01-11T12:38:13.879Z,101063.13
2023-01-11T12:38:47.179Z,101067.69
2023-01-11T12:39:09.850Z,101057.03
2023-01-11T12:39:33.906Z,101065.03
2023-01-11T12:39:55.503Z,101063.31
2023-01-11T12:40:18.140Z,101067.69
2023-01-11T12:40:36.317Z,101066.00
2023-01-11T12:41:04.362Z,101064.19
2023-01-11T12:41:50.208Z,101063.31
2023-01-11T12:42:15.950Z,101060.66
2023-01-11T12:43:05.323Z,101060.53
2023-01-11T12:43:30.864Z,101059.91
2023-01-11T12:43:57.705Z,101060.66
2023-01-11T12:44:15.884Z,101056.09
2023-01-11T12:44:45.897Z,101064.72
2023-01-11T12:45:12.967Z,101063.97
2023-01-11T12:45:38.669Z,101062.19
2023-01-11T12:46:05.386Z,101068.44
2023-01-11T12:46:28.362Z,101058.66
2023-01-11T12:46:54.717Z,101057.78
2023-01-11T12:47:26.546Z,101055.03
2023-01-11T12:48:05.663Z,101060.38
2023-01-11T12:48:38.112Z,101050.78
2023-01-11T12:49:06.135Z,101047.16
2023-01-11T12:49:30.114Z,101052.47
2023-01-11T12:49:52.631Z,101048.13
2023-01-11T12:50:15.962Z,101049.06
2023-01-11T12:50:33.210Z,101046.38
2023-01-11T12:51:05.175Z,101042.78
2023-01-11T12:51:31.040Z,101050.78
2023-01-11T12:52:02.079Z,101048.88
2023-01-11T12:52:39.319Z,101041.75
2023-01-11T12:53:17.161Z,101049.59
2023-01-11T12:53:43.409Z,101051.53
2023-01-11T12:54:18.817Z,101047.91
2023-01-11T12:54:42.881Z,101052.38
2023-01-11T12:55:15.257Z,101052.38
2023-01-11T12:55:42.481Z,101050.56
2023-01-11T12:56:20.771Z,101049.72
2023-01-11T12:56:57.551Z,101044.28
2023-01-11T12:57:20.068Z,101043.44
2023-01-11T12:57:41.727Z,101044.19
2023-01-11T12:58:00.458Z,101040.69
2023-01-11T12:58:20.999Z,101046.00
2023-01-11T12:58:41.339Z,101044.09
2023-01-11T12:58:59.258Z,101041.44
2023-01-11T12:59:27.916Z,101037.06
2023-01-11T13:00:07.146Z,101039.72
2023-01-11T13:00:32.195Z,101041.44
2023-01-11T13:01:16.312Z,101042.38
2023-01-11T13:01:40.990Z,101040.31
2023-01-11T13:02:05.483Z,101042.00
2023-01-11T13:02:38.024Z,101047.31
2023-01-11T13:03:08.796Z,101042.13
2023-01-11T13:03:53.675Z,101040.38
2023-01-11T13:04:33.392Z,101040.31
2023-01-11T13:04:55.142Z,101037.63
2023-01-11T13:05:23.580Z,101035.91
2023-01-11T13:05:47.692Z,101038.56
2023-01-11T13:06:10.014Z,101043.81
2023-01-11T13:06:30.444Z,101041.25
2023-01-11T13:06:53.707Z,101039.53
2023-01-11T13:07:16.147Z,101036.88
2023-01-11T13:07:52.864Z,101039.63
2023-01-11T13:08:11.671Z,101037.72
2023-01-11T13:08:38.117Z,101029.06
2023-01-11T13:08:58.621Z,101041.25
2023-01-11T13:09:27.193Z,101041.34
2023-01-11T13:09:54.546Z,101030.72
2023-01-11T13:10:23.766Z,101025.38
2023-01-11T13:10:48.088Z,101029.66
2023-01-11T13:11:10.946Z,101033.25
2023-01-11T13:11:38.471Z,101028.69
2023-01-11T13:11:56.980Z,101035.81
2023-01-11T13:12:17.270Z,101029.44
2023-01-11T13:12:37.602Z,101022.44
2023-01-11T13:12:56.479Z,101032.22
2023-01-11T13:13:15.038Z,101017.09
2023-01-11T13:13:37.559Z,101022.44
2023-01-11T13:14:00.491Z,101020.69
2023-01-11T13:14:34.082Z,101017.94
2023-01-11T13:15:00.859Z,101032.22
2023-01-11T13:15:28.370Z,101019.00
2023-01-11T13:15:48.967Z,101011.09
2023-01-11T13:16:08.239Z,101020.91
2023-01-11T13:16:27.569Z,101021.66
2023-01-11T13:16:47.305Z,101017.19
2023-01-11T13:17:08.187Z,101016.34
2023-01-11T13:17:28.052Z,101016.44
2023-01-11T13:17:45.809Z,101018.03
2023-01-11T13:18:05.425Z,101017.94
2023-01-11T13:18:29.749Z,101017.94
2023-01-11T13:18:49.591Z,101014.44
2023-01-11T13:19:07.659Z,101011.00
2023-01-11T13:19:26.908Z,101017.09
2023-01-11T13:19:47.155Z,101014.53
2023-01-11T13:20:17.352Z,101015.38
2023-01-11T13:20:59.462Z,101016.13
2023-01-11T13:21:25.476Z,101012.53
2023-01-11T13:21:44.333Z,101006.53
2023-01-11T13:21:58.388Z,101019.00
2023-01-11T13:22:15.579Z,101011.00
2023-01-11T13:22:34.265Z,101014.63
2023-01-11T13:22:50.696Z,101019.00
2023-01-11T13:23:08.289Z,101010.16
2023-01-11T13:23:29.368Z,101015.38
2023-01-11T13:23:47.665Z,101009.28
2023-01-11T13:24:07.461Z,101016.44
2023-01-11T13:24:26.405Z,101006.44
2023-01-11T13:24:40.827Z,101012.31
2023-01-11T13:24:53.482Z,101008.81
2023-01-11T13:25:16.468Z,101008.81
2023-01-11T13:25:32.733Z,101011.56
2023-01-11T13:25:48.488Z,101009.97
2023-01-11T13:26:09.847Z,101006.53
2023-01-11T13:26:26.578Z,101007.38
2023-01-11T13:26:42.760Z,101011.78
2023-01-11T13:27:01.613Z,101009.19
2023-01-11T13:27:18.994Z,101009.97
2023-01-11T13:27:32.876Z,101010.03
2023-01-11T13:27:47.542Z,101009.13
2023-01-11T13:28:04.946Z,101008.34
2023-01-11T13:28:24.626Z,101003.03
2023-01-11T13:28:42.036Z,101006.53
2023-01-11T13:29:01.072Z,101003.03
2023-01-11T13:29:17.023Z,101004.72
2023-01-11T13:29:32.447Z,101010.03
2023-01-11T13:29:47.411Z,101011.78
2023-01-11T13:30:01.925Z,100996.84
2023-01-11T13:30:17.981Z,101004.72
2023-01-11T13:30:32.056Z,101002.94
2023-01-11T13:30:46.481Z,101011.78
2023-01-11T13:31:02.741Z,100997.69
2023-01-11T13:31:16.499Z,100996.94
2023-01-11T13:31:34.492Z,100999.59
2023-01-11T13:31:49.663Z,100998.75
2023-01-11T13:32:05.621Z,101006.63
2023-01-11T13:32:21.477Z,101003.03
2023-01-11T13:32:38.251Z,101003.66
2023-01-11T13:32:56.218Z,100993.00
2023-01-11T13:33:17.329Z,100998.25
2023-01-11T13:33:32.645Z,101001.00
2023-01-11T13:33:50.728Z,100993.91
2023-01-11T13:34:07.048Z,100997.41
2023-01-11T13:34:25.673Z,100997.31
2023-01-11T13:34:42.341Z,100999.22
2023-01-11T13:35:01.195Z,100990.34
2023-01-11T13:35:16.838Z,100994.94
2023-01-11T13:35:37.264Z,100994.19
2023-01-11T13:35:57.419Z,100999.53
2023-01-11T13:36:22.919Z,100993.22
2023-01-11T13:36:42.388Z,100989.91
2023-01-11T13:36:59.748Z,100997.78
2023-01-11T13:37:20.106Z,100985.53
2023-01-11T13:37:40.273Z,100991.72
2023-01-11T13:38:01.600Z,100995.97
2023-01-11T13:38:27.595Z,100988.13
2023-01-11T13:38:46.393Z,100988.00
2023-01-11T13:39:05.208Z,100989.72
2023-01-11T13:39:28.515Z,100985.31
2023-01-11T13:39:46.717Z,100993.31
2023-01-11T13:40:09.415Z,100984.47
2023-01-11T13:40:24.978Z,100990.66
2023-01-11T13:40:44.728Z,100983.44
2023-01-11T13:41:01.737Z,100990.66
2023-01-11T13:41:21.049Z,100988.97
2023-01-11T13:41:41.413Z,100979.25
2023-01-11T13:41:57.740Z,100981.91
2023-01-11T13:42:15.831Z,100985.53
2023-01-11T13:42:33.942Z,100984.47
2023-01-11T13:42:51.933Z,100986.22
2023-01-11T13:43:10.319Z,100989.72
2023-01-11T13:43:30.908Z,100984.38
2023-01-11T13:43:49.285Z,100980.97
2023-01-11T13:44:11.522Z,100989.91
2023-01-11T13:44:27.930Z,100980.41
2023-01-11T13:44:44.672Z,100986.47
2023-01-11T13:45:01.858Z,100992.69
2023-01-11T13:45:20.892Z,100988.19
2023-01-11T13:45:37.102Z,100986.47
2023-01-11T13:45:54.491Z,100985.72
2023-01-11T13:46:14.907Z,100985.53
2023-01-11T13:46:45.005Z,100982.97
2023-01-11T13:47:06.139Z,100990.00
2023-01-11T13:47:24.286Z,100994.47
2023-01-11T13:47:42.065Z,100983.81
2023-01-11T13:47:58.518Z,100986.47
2023-01-11T13:48:18.481Z,100990.00
2023-01-11T13:48:37.589Z,100988.19
2023-01-11T13:48:55.968Z,100985.53
2023-01-11T13:49:18.521Z,100985.53
2023-01-11T13:49:52.519Z,100987.44
2023-01-11T13:50:13.376Z,100986.38
2023-01-11T13:50:31.160Z,100988.19
2023-01-11T13:50:51.550Z,100981.16
2023-01-11T13:51:19.191Z,100986.38
2023-01-11T13:51:38.964Z,100993.22
2023-01-11T13:51:56.188Z,100988.56
2023-01-11T13:52:14.461Z,100973.66
2023-01-11T13:52:38.855Z,100984.09
2023-01-11T13:53:03.719Z,100983.44
2023-01-11T13:53:32.950Z,100980.75
2023-01-11T13:53:53.084Z,100985.31
2023-01-11T13:54:12.085Z,100978.31
2023-01-11T13:54:35.261Z,100983.72
2023-01-11T13:54:58.714Z,100980.13
2023-01-11T13:55:25.129Z,100979.25
2023-01-11T13:55:46.042Z,100976.59
2023-01-11T13:56:03.121Z,100974.03
2023-01-11T13:56:20.611Z,100978.31
2023-01-11T13:56:38.331Z,100973.16
2023-01-11T13:56:56.945Z,100974.03
2023-01-11T13:57:19.753Z,100979.38
2023-01-11T13:57:43.469Z,100975.75
2023-01-11T13:58:01.688Z,100976.78
2023-01-11T13:58:20.494Z,100974.97
2023-01-11T13:58:42.528Z,100969.75
2023-01-11T13:59:01.638Z,100975.81
2023-01-11T13:59:19.982Z,100978.59
2023-01-11T13:59:40.761Z,100980.00
2023-01-11T14:00:00.328Z,100974.81
2023-01-11T14:00:22.431Z,100972.22
2023-01-11T14:00:42.234Z,100974.13
2023-01-11T14:01:01.498Z,100973.16
2023-01-11T14:01:18.146Z,100980.22
2023-01-11T14:01:42.627Z,100972.41
2023-01-11T14:02:01.502Z,100977.72
2023-01-11T14:02:22.129Z,100972.53
2023-01-11T14:02:40.658Z,100977.72
2023-01-11T14:02:59.966Z,100975.06
2023-01-11T14:03:24.242Z,100979.47
2023-01-11T14:03:45.168Z,100976.88
2023-01-11T14:04:06.144Z,100981.06
2023-01-11T14:04:27.243Z,100972.22
2023-01-11T14:04:47.009Z,100976.59
2023-01-11T14:05:04.489Z,100974.03
2023-01-11T14:05:19.377Z,100974.97
2023-01-11T14:05:39.355Z,100975.75
2023-01-11T14:06:02.554Z,100979.25
2023-01-11T14:06:42.462Z,100972.22
2023-01-11T14:07:07.381Z,100971.47
2023-01-11T14:07:29.198Z,100959.09
2023-01-11T14:07:56.054Z,100970.50
2023-01-11T14:08:24.284Z,100968.06
2023-01-11T14:09:00.630Z,100973.28
2023-01-11T14:09:38.547Z,100966.25
2023-01-11T14:10:18.112Z,100967.22
2023-01-11T14:10:40.334Z,100976.03
2023-01-11T14:11:01.326Z,100969.88
2023-01-11T14:11:23.808Z,100970.72
2023-01-11T14:11:47.292Z,100966.34
2023-01-11T14:12:08.798Z,100969.75
2023-01-11T14:12:34.554Z,100976.78
2023-01-11T14:13:04.397Z,100967.22
2023-01-11T14:14:08.153Z,100967.09
2023-01-11T14:14:41.671Z,100968.91
2023-01-11T14:15:22.614Z,100972.41
2023-01-11T14:15:41.732Z,100973.38
2023-01-11T14:15:59.300Z,100969.75
2023-01-11T14:16:21.459Z,100967.09
2023-01-11T14:16:46.987Z,100961.03
2023-01-11T14:17:19.175Z,100971.47
2023-01-11T14:18:09.282Z,100967.00